Algoma Discovery — CFK9796 — position and weather

sailwx.info

Track history (hours):
 
Tides and Currents Weather Stations Pressure Air Temp Water Temp Dewpoint Dewpoint Depression Visibility Wind Speed Wind Dir Waves Ship Positions

Algoma Discovery

Last reported at 2018-Jun-21 09:31 UTC. Time now 2018-Jun-21 10:03 UTC.
Position N 45°12' W 074°18'.

Length 223 m; draft 7.5 m.

Type: Cargo ship. MMSI: 316018477.

Date/timePositionNaut miles runAvg speedWind from/ knotsBaromVisibWave heightAir tempDewpointWater temp
2018-Jun-21 09:31N 45°12' W 074°18'0 8.7
2018-Jun-21 09:30N 45°12' W 074°18'6 8.4
2018-Jun-21 08:49N 45°14' W 074°10'4 8.0
2018-Jun-21 08:19N 45°13' W 074°05'3 8.4
2018-Jun-21 08:00N 45°14' W 074°01'4 8.7
2018-Jun-21 07:30N 45°17' W 073°57'2 3.6
2018-Jun-21 07:01N 45°18' W 073°56'1 1.0
2018-Jun-21 06:30N 45°19' W 073°55'0 0.7
2018-Jun-21 06:00N 45°19' W 073°55'1 1.9
2018-Jun-21 05:30N 45°20' W 073°54'4 8.4
2018-Jun-21 05:00N 45°22' W 073°49'5 9.4
2018-Jun-21 04:30N 45°24' W 073°44'3 5.8
2018-Jun-21 04:00N 45°25' W 073°39'3 5.5
2018-Jun-21 03:30N 45°24' W 073°36'1 2.4
2018-Jun-21 03:01N 45°24' W 073°34'0 0.9
2018-Jun-21 02:31N 45°24' W 073°33'2 3.7
2018-Jun-21 02:00N 45°25' W 073°31'3 5.3
2018-Jun-21 01:30N 45°28' W 073°30'2 4.2
2018-Jun-21 01:01N 45°30' W 073°31'0 0.0
2018-Jun-21 00:30N 45°30' W 073°31'1 1.3
2018-Jun-21 00:00N 45°30' W 073°31'3 3.9
2018-Jun-20 23:20N 45°33' W 073°31'0 1.3
2018-Jun-20 22:57N 45°33' W 073°31'3 5.5
2018-Jun-20 22:26N 45°36' W 073°30'4 9.1
2018-Jun-20 22:01N 45°40' W 073°28'5 9.9
2018-Jun-20 21:31N 45°44' W 073°25'510.2
2018-Jun-20 21:01N 45°48' W 073°20'3 5.6
2018-Jun-20 20:29N 45°50' W 073°17'0 0.0
2018-Jun-20 20:00N 45°50' W 073°17'0 0.0
2018-Jun-20 19:29N 45°50' W 073°17'0 0.0
2018-Jun-20 18:59N 45°50' W 073°17'0 0.0
2018-Jun-20 18:29N 45°50' W 073°17'0 0.0
2018-Jun-20 17:59N 45°50' W 073°17'0 0.0
2018-Jun-20 17:29N 45°50' W 073°17'0 0.0
2018-Jun-20 17:00N 45°50' W 073°17'0 0.0
2018-Jun-20 16:29N 45°50' W 073°17'0 0.0
2018-Jun-20 15:59N 45°50' W 073°17'0 0.0
2018-Jun-20 15:29N 45°50' W 073°17'0 0.0
2018-Jun-20 14:57N 45°50' W 073°17'0 0.0
2018-Jun-20 14:26N 45°50' W 073°17'0 0.0
2018-Jun-20 13:59N 45°50' W 073°17'0 0.0
2018-Jun-20 13:30N 45°50' W 073°17'0 0.0
2018-Jun-20 12:59N 45°50' W 073°17'0 0.0
2018-Jun-20 12:30N 45°50' W 073°17'0 0.0
2018-Jun-20 12:00N 45°50' W 073°17'0 0.0
2018-Jun-20 11:27N 45°50' W 073°17'0 0.0
2018-Jun-20 11:00N 45°50' W 073°17'0 0.0
2018-Jun-20 10:26N 45°50' W 073°17'0 0.0
2018-Jun-20 09:59N 45°50' W 073°17'0 0.0
2018-Jun-20 09:30N 45°50' W 073°17'0 0.0
2018-Jun-20 09:00N 45°50' W 073°17'0 0.0
2018-Jun-20 08:30N 45°50' W 073°17'0 0.0
2018-Jun-20 07:56N 45°50' W 073°17'0 0.0
2018-Jun-20 07:26N 45°50' W 073°17'0 0.0
2018-Jun-20 06:56N 45°50' W 073°17'0 0.0
2018-Jun-20 06:29N 45°50' W 073°17'0 0.0
2018-Jun-20 05:59N 45°50' W 073°17'0 0.0
2018-Jun-20 05:30N 45°50' W 073°17'0 0.0
2018-Jun-20 04:54N 45°50' W 073°17'0 0.0
2018-Jun-20 04:30N 45°50' W 073°17'0 0.0
2018-Jun-20 04:00N 45°50' W 073°17'0 0.0
2018-Jun-20 03:30N 45°50' W 073°17'0 0.0
2018-Jun-20 02:59N 45°50' W 073°17'0 0.0
2018-Jun-20 02:30N 45°50' W 073°17'0 0.0
2018-Jun-20 01:59N 45°50' W 073°17'0 0.0
2018-Jun-20 01:29N 45°50' W 073°17'0 0.0
2018-Jun-20 00:59N 45°50' W 073°17'0 0.0
2018-Jun-20 00:30N 45°50' W 073°17'0 0.0
2018-Jun-19 23:59N 45°50' W 073°17'0 0.0
2018-Jun-19 23:30N 45°50' W 073°17'0 0.0
2018-Jun-19 22:59N 45°50' W 073°17'0 0.0
2018-Jun-19 22:30N 45°50' W 073°17'0 0.0
2018-Jun-19 21:51N 45°50' W 073°17'0 0.0
2018-Jun-19 21:27N 45°50' W 073°17'0 0.0
2018-Jun-19 20:59N 45°50' W 073°17'0 0.0
2018-Jun-19 20:26N 45°50' W 073°17'0 0.0
2018-Jun-19 19:42N 45°50' W 073°17'0 0.0
2018-Jun-19 19:30N 45°50' W 073°17'0 0.0
2018-Jun-19 18:56N 45°50' W 073°17'0 0.0
2018-Jun-19 18:27N 45°50' W 073°17'0 0.0
2018-Jun-19 17:57N 45°50' W 073°17'0 0.0
2018-Jun-19 17:29N 45°50' W 073°17'0 0.0
2018-Jun-19 16:57N 45°50' W 073°17'0 0.0
2018-Jun-19 16:29N 45°50' W 073°17'0 0.0
2018-Jun-19 15:59N 45°50' W 073°17'0 0.0
2018-Jun-19 15:29N 45°50' W 073°17'0 0.0
2018-Jun-19 14:59N 45°50' W 073°17'0 0.0
2018-Jun-19 14:29N 45°50' W 073°17'0 0.0
2018-Jun-19 14:00N 45°50' W 073°17'0 0.0
2018-Jun-19 13:29N 45°50' W 073°17'0 0.0
2018-Jun-19 12:59N 45°50' W 073°17'0 0.0
2018-Jun-19 12:27N 45°50' W 073°17'0 0.0
2018-Jun-19 11:59N 45°50' W 073°17'0 0.0
2018-Jun-19 11:29N 45°50' W 073°17'0 0.0
2018-Jun-19 10:59N 45°50' W 073°17'0 0.0
2018-Jun-19 10:29N 45°50' W 073°17'0 0.0
2018-Jun-19 09:56N 45°50' W 073°17'0 0.0
2018-Jun-19 09:29N 45°50' W 073°17'0 0.0
2018-Jun-19 08:53N 45°50' W 073°17'0 0.0
2018-Jun-19 08:30N 45°50' W 073°17'0 0.0
2018-Jun-19 07:59N 45°50' W 073°17'0 0.0
2018-Jun-19 07:29N 45°50' W 073°17'0 0.0
2018-Jun-19 07:00N 45°50' W 073°17'0 0.0
2018-Jun-19 06:30N 45°50' W 073°17'0 0.0
2018-Jun-19 05:53N 45°50' W 073°17'0 0.0
2018-Jun-19 05:30N 45°50' W 073°17'0 0.0
2018-Jun-19 05:00N 45°50' W 073°17'0 0.0
2018-Jun-19 04:29N 45°50' W 073°17'0 0.0
2018-Jun-19 04:00N 45°50' W 073°17'0 0.0
2018-Jun-19 03:29N 45°50' W 073°17'0 0.0
2018-Jun-19 02:56N 45°50' W 073°17'0 0.0
2018-Jun-19 02:30N 45°50' W 073°17'0 0.0
2018-Jun-19 02:00N 45°50' W 073°17'0 0.0
2018-Jun-19 01:27N 45°50' W 073°17'0 0.0
2018-Jun-19 00:59N 45°50' W 073°17'0 0.0
2018-Jun-19 00:30N 45°50' W 073°17'0 0.0
2018-Jun-18 23:57N 45°50' W 073°17'0 0.0
2018-Jun-18 23:30N 45°50' W 073°17'0 0.0
2018-Jun-18 22:59N 45°50' W 073°17'0 0.0
2018-Jun-18 22:30N 45°50' W 073°17'0 0.0
2018-Jun-18 22:00N 45°50' W 073°17'0 0.0
2018-Jun-18 21:29N 45°50' W 073°17'0 0.0
2018-Jun-18 20:56N 45°50' W 073°17'0 0.0
2018-Jun-18 20:26N 45°50' W 073°17'0 0.0
2018-Jun-18 19:59N 45°50' W 073°17'0 0.0
2018-Jun-18 19:29N 45°50' W 073°17'0 0.0
2018-Jun-18 18:59N 45°50' W 073°17'0 0.0
2018-Jun-18 18:27N 45°50' W 073°17'0 0.0
2018-Jun-18 18:00N 45°50' W 073°17'0 0.0
2018-Jun-18 17:26N 45°50' W 073°17'0 0.0
2018-Jun-18 17:00N 45°50' W 073°17'0 0.0
2018-Jun-18 16:23N 45°50' W 073°17'0 0.0
2018-Jun-18 15:56N 45°50' W 073°17'0 0.0
2018-Jun-18 15:30N 45°50' W 073°17'0 0.0
2018-Jun-18 14:59N 45°50' W 073°17'0 0.0
2018-Jun-18 14:27N 45°50' W 073°17'0 0.0
2018-Jun-18 13:59N 45°50' W 073°17'0 0.0
2018-Jun-18 13:29N 45°50' W 073°17'0 0.0
2018-Jun-18 13:00N 45°50' W 073°17'0 0.0
2018-Jun-18 12:30N 45°50' W 073°17'0 0.0
2018-Jun-18 12:00N 45°50' W 073°17'0 0.0
2018-Jun-18 11:30N 45°50' W 073°17'0 0.0
2018-Jun-18 11:00N 45°50' W 073°17'0 0.0
2018-Jun-18 10:30N 45°50' W 073°17'0 0.0
2018-Jun-18 10:00N 45°50' W 073°17'0 0.0
2018-Jun-18 09:30N 45°50' W 073°17'0 0.0
2018-Jun-18 09:00N 45°50' W 073°17'0 0.0
2018-Jun-18 08:30N 45°50' W 073°17'0 0.0
2018-Jun-18 08:00N 45°50' W 073°17'0 0.0
2018-Jun-18 07:30N 45°50' W 073°17'0 0.0
2018-Jun-18 07:00N 45°50' W 073°17'0 0.0
2018-Jun-18 06:30N 45°50' W 073°17'0 0.0
2018-Jun-18 06:00N 45°50' W 073°17'0 0.0
2018-Jun-18 05:30N 45°50' W 073°17'0 0.0
2018-Jun-18 05:00N 45°50' W 073°17'0 0.0
2018-Jun-18 04:30N 45°50' W 073°17'0 0.0
2018-Jun-18 04:00N 45°50' W 073°17'0 0.0
2018-Jun-18 03:30N 45°50' W 073°17'0 0.0
2018-Jun-18 03:00N 45°50' W 073°17'0 0.0
2018-Jun-18 02:30N 45°50' W 073°17'0 0.0
2018-Jun-18 02:00N 45°50' W 073°17'1 1.3
2018-Jun-18 01:30N 45°51' W 073°17'3 5.5
2018-Jun-18 01:00N 45°53' W 073°15'4 8.2
2018-Jun-18 00:30N 45°57' W 073°13'4 8.1
2018-Jun-17 23:59N 46°01' W 073°10'0 0.4
2018-Jun-17 23:30N 46°01' W 073°10'0 0.0
2018-Jun-17 23:00N 46°01' W 073°10'0 0.0
2018-Jun-17 22:28N 46°01' W 073°10'0 0.0
2018-Jun-17 22:00N 46°01' W 073°10'0 0.0
2018-Jun-17 21:30N 46°01' W 073°10'0 0.4
2018-Jun-17 21:00N 46°01' W 073°10'2 4.8
2018-Jun-17 20:30N 46°03' W 073°08'5 8.7
2018-Jun-17 19:58N 46°04' W 073°02'87 9.4
2018-Jun-17 10:43N 46°48' W 071°13'2 8.9
2018-Jun-17 10:30N 46°49' W 071°12'20910.2
2018-Jun-16 14:00N 49°12' W 067°24'   020 / 151004.010.8 10.040.0
2018-Jun-11 17:39N 46°06' W 072°59'214.2
2018-Jun-11 17:30N 46°05' W 073°01'612.0
2018-Jun-11 17:00N 46°03' W 073°09'713.4
2018-Jun-11 16:31N 45°56' W 073°13'612.9
2018-Jun-11 16:00N 45°51' W 073°17'713.5
2018-Jun-11 15:30N 45°46' W 073°23'813.6
2018-Jun-11 14:57N 45°39' W 073°29'7 9.6
2018-Jun-11 14:11N 45°32' W 073°32'1 5.4
2018-Jun-11 14:00N 45°31' W 073°31'1 2.8
2018-Jun-11 13:30N 45°30' W 073°31'0 0.0
2018-Jun-11 13:01N 45°30' W 073°31'0 0.8
2018-Jun-11 12:30N 45°29' W 073°31'1 1.0
2018-Jun-11 12:00N 45°29' W 073°31'2 3.6
2018-Jun-11 11:31N 45°27' W 073°30'3 5.3
2018-Jun-11 11:01N 45°25' W 073°32'2 3.2
2018-Jun-11 10:31N 45°24' W 073°34'0 0.3
2018-Jun-11 10:01N 45°24' W 073°34'  
Track history (hours):
 
Tides and Currents Weather Stations Pressure Air Temp Water Temp Dewpoint Dewpoint Depression Visibility Wind Speed Wind Dir Waves Ship Positions

Algoma Discovery

Last reported at 2018-Jun-21 09:31 UTC. Time now 2018-Jun-21 10:03 UTC.
Position N 45°12' W 074°18'.

Length 223 m; draft 7.5 m.

Type: Cargo ship. MMSI: 316018477.

Date/timePositionNaut miles runAvg speedWind from/ knotsBaromVisibWave heightAir tempDewpointWater temp
2018-Jun-21 09:31N 45°12' W 074°18'0 8.7
2018-Jun-21 09:30N 45°12' W 074°18'6 8.4
2018-Jun-21 08:49N 45°14' W 074°10'4 8.0
2018-Jun-21 08:19N 45°13' W 074°05'3 8.4
2018-Jun-21 08:00N 45°14' W 074°01'4 8.7
2018-Jun-21 07:30N 45°17' W 073°57'2 3.6
2018-Jun-21 07:01N 45°18' W 073°56'1 1.0
2018-Jun-21 06:30N 45°19' W 073°55'0 0.7
2018-Jun-21 06:00N 45°19' W 073°55'1 1.9
2018-Jun-21 05:30N 45°20' W 073°54'4 8.4
2018-Jun-21 05:00N 45°22' W 073°49'5 9.4
2018-Jun-21 04:30N 45°24' W 073°44'3 5.8
2018-Jun-21 04:00N 45°25' W 073°39'3 5.5
2018-Jun-21 03:30N 45°24' W 073°36'1 2.4
2018-Jun-21 03:01N 45°24' W 073°34'0 0.9
2018-Jun-21 02:31N 45°24' W 073°33'2 3.7
2018-Jun-21 02:00N 45°25' W 073°31'3 5.3
2018-Jun-21 01:30N 45°28' W 073°30'2 4.2
2018-Jun-21 01:01N 45°30' W 073°31'0 0.0
2018-Jun-21 00:30N 45°30' W 073°31'1 1.3
2018-Jun-21 00:00N 45°30' W 073°31'3 3.9
2018-Jun-20 23:20N 45°33' W 073°31'0 1.3
2018-Jun-20 22:57N 45°33' W 073°31'3 5.5
2018-Jun-20 22:26N 45°36' W 073°30'4 9.1
2018-Jun-20 22:01N 45°40' W 073°28'5 9.9
2018-Jun-20 21:31N 45°44' W 073°25'510.2
2018-Jun-20 21:01N 45°48' W 073°20'3 5.6
2018-Jun-20 20:29N 45°50' W 073°17'0 0.0
2018-Jun-20 20:00N 45°50' W 073°17'0 0.0
2018-Jun-20 19:29N 45°50' W 073°17'0 0.0
2018-Jun-20 18:59N 45°50' W 073°17'0 0.0
2018-Jun-20 18:29N 45°50' W 073°17'0 0.0
2018-Jun-20 17:59N 45°50' W 073°17'0 0.0
2018-Jun-20 17:29N 45°50' W 073°17'0 0.0
2018-Jun-20 17:00N 45°50' W 073°17'0 0.0
2018-Jun-20 16:29N 45°50' W 073°17'0 0.0
2018-Jun-20 15:59N 45°50' W 073°17'0 0.0
2018-Jun-20 15:29N 45°50' W 073°17'0 0.0
2018-Jun-20 14:57N 45°50' W 073°17'0 0.0
2018-Jun-20 14:26N 45°50' W 073°17'0 0.0
2018-Jun-20 13:59N 45°50' W 073°17'0 0.0
2018-Jun-20 13:30N 45°50' W 073°17'0 0.0
2018-Jun-20 12:59N 45°50' W 073°17'0 0.0
2018-Jun-20 12:30N 45°50' W 073°17'0 0.0
2018-Jun-20 12:00N 45°50' W 073°17'0 0.0
2018-Jun-20 11:27N 45°50' W 073°17'0 0.0
2018-Jun-20 11:00N 45°50' W 073°17'0 0.0
2018-Jun-20 10:26N 45°50' W 073°17'0 0.0
2018-Jun-20 09:59N 45°50' W 073°17'0 0.0
2018-Jun-20 09:30N 45°50' W 073°17'0 0.0
2018-Jun-20 09:00N 45°50' W 073°17'0 0.0
2018-Jun-20 08:30N 45°50' W 073°17'0 0.0
2018-Jun-20 07:56N 45°50' W 073°17'0 0.0
2018-Jun-20 07:26N 45°50' W 073°17'0 0.0
2018-Jun-20 06:56N 45°50' W 073°17'0 0.0
2018-Jun-20 06:29N 45°50' W 073°17'0 0.0
2018-Jun-20 05:59N 45°50' W 073°17'0 0.0
2018-Jun-20 05:30N 45°50' W 073°17'0 0.0
2018-Jun-20 04:54N 45°50' W 073°17'0 0.0
2018-Jun-20 04:30N 45°50' W 073°17'0 0.0
2018-Jun-20 04:00N 45°50' W 073°17'0 0.0
2018-Jun-20 03:30N 45°50' W 073°17'0 0.0
2018-Jun-20 02:59N 45°50' W 073°17'0 0.0
2018-Jun-20 02:30N 45°50' W 073°17'0 0.0
2018-Jun-20 01:59N 45°50' W 073°17'0 0.0
2018-Jun-20 01:29N 45°50' W 073°17'0 0.0
2018-Jun-20 00:59N 45°50' W 073°17'0 0.0
2018-Jun-20 00:30N 45°50' W 073°17'0 0.0
2018-Jun-19 23:59N 45°50' W 073°17'0 0.0
2018-Jun-19 23:30N 45°50' W 073°17'0 0.0
2018-Jun-19 22:59N 45°50' W 073°17'0 0.0
2018-Jun-19 22:30N 45°50' W 073°17'0 0.0
2018-Jun-19 21:51N 45°50' W 073°17'0 0.0
2018-Jun-19 21:27N 45°50' W 073°17'0 0.0
2018-Jun-19 20:59N 45°50' W 073°17'0 0.0
2018-Jun-19 20:26N 45°50' W 073°17'0 0.0
2018-Jun-19 19:42N 45°50' W 073°17'0 0.0
2018-Jun-19 19:30N 45°50' W 073°17'0 0.0
2018-Jun-19 18:56N 45°50' W 073°17'0 0.0
2018-Jun-19 18:27N 45°50' W 073°17'0 0.0
2018-Jun-19 17:57N 45°50' W 073°17'0 0.0
2018-Jun-19 17:29N 45°50' W 073°17'0 0.0
2018-Jun-19 16:57N 45°50' W 073°17'0 0.0
2018-Jun-19 16:29N 45°50' W 073°17'0 0.0
2018-Jun-19 15:59N 45°50' W 073°17'0 0.0
2018-Jun-19 15:29N 45°50' W 073°17'0 0.0
2018-Jun-19 14:59N 45°50' W 073°17'0 0.0
2018-Jun-19 14:29N 45°50' W 073°17'0 0.0
2018-Jun-19 14:00N 45°50' W 073°17'0 0.0
2018-Jun-19 13:29N 45°50' W 073°17'0 0.0
2018-Jun-19 12:59N 45°50' W 073°17'0 0.0
2018-Jun-19 12:27N 45°50' W 073°17'0 0.0
2018-Jun-19 11:59N 45°50' W 073°17'0 0.0
2018-Jun-19 11:29N 45°50' W 073°17'0 0.0
2018-Jun-19 10:59N 45°50' W 073°17'0 0.0
2018-Jun-19 10:29N 45°50' W 073°17'0 0.0
2018-Jun-19 09:56N 45°50' W 073°17'0 0.0
2018-Jun-19 09:29N 45°50' W 073°17'0 0.0
2018-Jun-19 08:53N 45°50' W 073°17'0 0.0
2018-Jun-19 08:30N 45°50' W 073°17'0 0.0
2018-Jun-19 07:59N 45°50' W 073°17'0 0.0
2018-Jun-19 07:29N 45°50' W 073°17'0 0.0
2018-Jun-19 07:00N 45°50' W 073°17'0 0.0
2018-Jun-19 06:30N 45°50' W 073°17'0 0.0
2018-Jun-19 05:53N 45°50' W 073°17'0 0.0
2018-Jun-19 05:30N 45°50' W 073°17'0 0.0
2018-Jun-19 05:00N 45°50' W 073°17'0 0.0
2018-Jun-19 04:29N 45°50' W 073°17'0 0.0
2018-Jun-19 04:00N 45°50' W 073°17'0 0.0
2018-Jun-19 03:29N 45°50' W 073°17'0 0.0
2018-Jun-19 02:56N 45°50' W 073°17'0 0.0
2018-Jun-19 02:30N 45°50' W 073°17'0 0.0
2018-Jun-19 02:00N 45°50' W 073°17'0 0.0
2018-Jun-19 01:27N 45°50' W 073°17'0 0.0
2018-Jun-19 00:59N 45°50' W 073°17'0 0.0
2018-Jun-19 00:30N 45°50' W 073°17'0 0.0
2018-Jun-18 23:57N 45°50' W 073°17'0 0.0
2018-Jun-18 23:30N 45°50' W 073°17'0 0.0
2018-Jun-18 22:59N 45°50' W 073°17'0 0.0
2018-Jun-18 22:30N 45°50' W 073°17'0 0.0
2018-Jun-18 22:00N 45°50' W 073°17'0 0.0
2018-Jun-18 21:29N 45°50' W 073°17'0 0.0
2018-Jun-18 20:56N 45°50' W 073°17'0 0.0
2018-Jun-18 20:26N 45°50' W 073°17'0 0.0
2018-Jun-18 19:59N 45°50' W 073°17'0 0.0
2018-Jun-18 19:29N 45°50' W 073°17'0 0.0
2018-Jun-18 18:59N 45°50' W 073°17'0 0.0
2018-Jun-18 18:27N 45°50' W 073°17'0 0.0
2018-Jun-18 18:00N 45°50' W 073°17'0 0.0
2018-Jun-18 17:26N 45°50' W 073°17'0 0.0
2018-Jun-18 17:00N 45°50' W 073°17'0 0.0
2018-Jun-18 16:23N 45°50' W 073°17'0 0.0
2018-Jun-18 15:56N 45°50' W 073°17'0 0.0
2018-Jun-18 15:30N 45°50' W 073°17'0 0.0
2018-Jun-18 14:59N 45°50' W 073°17'0 0.0
2018-Jun-18 14:27N 45°50' W 073°17'0 0.0
2018-Jun-18 13:59N 45°50' W 073°17'0 0.0
2018-Jun-18 13:29N 45°50' W 073°17'0 0.0
2018-Jun-18 13:00N 45°50' W 073°17'0 0.0
2018-Jun-18 12:30N 45°50' W 073°17'0 0.0
2018-Jun-18 12:00N 45°50' W 073°17'0 0.0
2018-Jun-18 11:30N 45°50' W 073°17'0 0.0
2018-Jun-18 11:00N 45°50' W 073°17'0 0.0
2018-Jun-18 10:30N 45°50' W 073°17'0 0.0
2018-Jun-18 10:00N 45°50' W 073°17'0 0.0
2018-Jun-18 09:30N 45°50' W 073°17'0 0.0
2018-Jun-18 09:00N 45°50' W 073°17'0 0.0
2018-Jun-18 08:30N 45°50' W 073°17'0 0.0
2018-Jun-18 08:00N 45°50' W 073°17'0 0.0
2018-Jun-18 07:30N 45°50' W 073°17'0 0.0
2018-Jun-18 07:00N 45°50' W 073°17'0 0.0
2018-Jun-18 06:30N 45°50' W 073°17'0 0.0
2018-Jun-18 06:00N 45°50' W 073°17'0 0.0
2018-Jun-18 05:30N 45°50' W 073°17'0 0.0
2018-Jun-18 05:00N 45°50' W 073°17'0 0.0
2018-Jun-18 04:30N 45°50' W 073°17'0 0.0
2018-Jun-18 04:00N 45°50' W 073°17'0 0.0
2018-Jun-18 03:30N 45°50' W 073°17'0 0.0
2018-Jun-18 03:00N 45°50' W 073°17'0 0.0
2018-Jun-18 02:30N 45°50' W 073°17'0 0.0
2018-Jun-18 02:00N 45°50' W 073°17'1 1.3
2018-Jun-18 01:30N 45°51' W 073°17'3 5.5
2018-Jun-18 01:00N 45°53' W 073°15'4 8.2
2018-Jun-18 00:30N 45°57' W 073°13'4 8.1
2018-Jun-17 23:59N 46°01' W 073°10'0 0.4
2018-Jun-17 23:30N 46°01' W 073°10'0 0.0
2018-Jun-17 23:00N 46°01' W 073°10'0 0.0
2018-Jun-17 22:28N 46°01' W 073°10'0 0.0
2018-Jun-17 22:00N 46°01' W 073°10'0 0.0
2018-Jun-17 21:30N 46°01' W 073°10'0 0.4
2018-Jun-17 21:00N 46°01' W 073°10'2 4.8
2018-Jun-17 20:30N 46°03' W 073°08'5 8.7
2018-Jun-17 19:58N 46°04' W 073°02'87 9.4
2018-Jun-17 10:43N 46°48' W 071°13'2 8.9
2018-Jun-17 10:30N 46°49' W 071°12'20910.2
2018-Jun-16 14:00N 49°12' W 067°24'   020 / 151004.010.8 10.040.0
2018-Jun-11 17:39N 46°06' W 072°59'214.2
2018-Jun-11 17:30N 46°05' W 073°01'612.0
2018-Jun-11 17:00N 46°03' W 073°09'713.4
2018-Jun-11 16:31N 45°56' W 073°13'612.9
2018-Jun-11 16:00N 45°51' W 073°17'713.5
2018-Jun-11 15:30N 45°46' W 073°23'813.6
2018-Jun-11 14:57N 45°39' W 073°29'7 9.6
2018-Jun-11 14:11N 45°32' W 073°32'1 5.4
2018-Jun-11 14:00N 45°31' W 073°31'1 2.8
2018-Jun-11 13:30N 45°30' W 073°31'0 0.0
2018-Jun-11 13:01N 45°30' W 073°31'0 0.8
2018-Jun-11 12:30N 45°29' W 073°31'1 1.0
2018-Jun-11 12:00N 45°29' W 073°31'2 3.6
2018-Jun-11 11:31N 45°27' W 073°30'3 5.3
2018-Jun-11 11:01N 45°25' W 073°32'2 3.2
2018-Jun-11 10:31N 45°24' W 073°34'0 0.3
2018-Jun-11 10:01N 45°24' W 073°34'  

Dump ship's entire track history